createdAt,value
2023-03-28T00:01:01.983Z,1.27
2023-03-28T00:03:30.174Z,1.58
2023-03-28T00:06:00.929Z,1.60
2023-03-28T00:08:29.833Z,1.42
2023-03-28T00:11:05.847Z,1.08
2023-03-28T00:13:35.658Z,1.13
2023-03-28T00:16:05.921Z,1.60
2023-03-28T00:18:39.102Z,1.63
2023-03-28T00:21:10.308Z,1.23
2023-03-28T00:23:37.967Z,2.03
2023-03-28T00:26:08.886Z,1.48
2023-03-28T00:28:38.061Z,1.25
2023-03-28T00:31:06.944Z,1.73
2023-03-28T00:33:35.023Z,1.13
2023-03-28T00:36:03.196Z,1.40
2023-03-28T00:38:31.474Z,1.58
2023-03-28T00:40:59.281Z,1.55
2023-03-28T00:43:40.198Z,1.50
2023-03-28T00:46:14.027Z,1.45
2023-03-28T00:48:48.076Z,1.38
2023-03-28T00:51:16.214Z,1.20
2023-03-28T00:53:44.050Z,1.65
2023-03-28T00:56:14.203Z,1.93
2023-03-28T00:58:44.908Z,1.92
2023-03-28T01:01:15.781Z,1.27
2023-03-28T01:03:47.398Z,1.40
2023-03-28T01:06:16.511Z,1.67
2023-03-28T01:08:47.183Z,1.88
2023-03-28T01:11:15.848Z,1.38
2023-03-28T01:13:48.081Z,1.60
2023-03-28T01:16:16.796Z,1.55
2023-03-28T01:18:47.282Z,1.40
2023-03-28T01:21:48.849Z,2.10
2023-03-28T01:24:38.395Z,2.03
2023-03-28T01:27:08.444Z,1.70
2023-03-28T01:30:02.592Z,1.67
2023-03-28T01:33:02.976Z,1.90
2023-03-28T01:35:52.130Z,1.40
2023-03-28T01:38:27.734Z,1.40
2023-03-28T01:41:02.552Z,1.35
2023-03-28T01:43:38.046Z,1.45
2023-03-28T01:46:09.631Z,2.20
2023-03-28T01:48:43.387Z,1.73
2023-03-28T01:51:14.336Z,1.70
2023-03-28T01:53:45.940Z,1.77
2023-03-28T01:56:18.769Z,1.50
2023-03-28T01:58:52.152Z,1.98
2023-03-28T02:01:24.886Z,1.85
2023-03-28T02:03:56.132Z,1.50
2023-03-28T02:06:24.618Z,1.60
2023-03-28T02:08:55.451Z,1.80
2023-03-28T02:11:24.005Z,1.10
2023-03-28T02:13:54.659Z,1.92
2023-03-28T02:16:24.677Z,1.30
2023-03-28T02:18:55.346Z,1.75
2023-03-28T02:21:26.857Z,2.03
2023-03-28T02:23:56.749Z,1.85
2023-03-28T02:26:25.133Z,1.55
2023-03-28T02:28:55.014Z,1.08
2023-03-28T02:31:23.870Z,1.83
2023-03-28T02:33:53.224Z,2.05
2023-03-28T02:36:30.078Z,1.52
2023-03-28T02:39:13.844Z,1.92
2023-03-28T02:41:49.162Z,1.73
2023-03-28T02:44:38.139Z,1.75
2023-03-28T02:47:13.252Z,1.58
2023-03-28T02:49:50.438Z,1.60
2023-03-28T02:52:25.033Z,1.65
2023-03-28T02:54:58.936Z,1.50
2023-03-28T02:57:32.441Z,1.80
2023-03-28T03:00:12.356Z,2.33
2023-03-28T03:02:40.754Z,1.65
2023-03-28T03:05:09.759Z,1.95
2023-03-28T03:07:38.481Z,1.60
2023-03-28T03:10:09.284Z,1.75
2023-03-28T03:12:37.969Z,1.80
2023-03-28T03:15:07.273Z,1.90
2023-03-28T03:17:35.046Z,1.73
2023-03-28T03:20:06.874Z,1.85
2023-03-28T03:22:34.851Z,1.90
2023-03-28T03:25:06.609Z,2.00
2023-03-28T03:27:36.675Z,2.30
2023-03-28T03:30:05.372Z,2.00
2023-03-28T03:32:33.376Z,1.58
2023-03-28T03:35:01.191Z,1.52
2023-03-28T03:37:28.848Z,1.52
2023-03-28T03:39:56.536Z,1.70
2023-03-28T03:42:24.274Z,1.63
2023-03-28T03:44:54.439Z,2.30
2023-03-28T03:47:22.415Z,2.20
2023-03-28T03:49:50.100Z,1.73
2023-03-28T03:52:17.769Z,1.83
2023-03-28T03:54:45.711Z,1.85
2023-03-28T03:57:13.430Z,1.67
2023-03-28T03:59:41.136Z,1.90
2023-03-28T04:02:10.726Z,1.98
2023-03-28T04:04:40.483Z,2.63
2023-03-28T04:07:08.556Z,2.40
2023-03-28T04:09:36.330Z,2.22
2023-03-28T04:12:04.227Z,2.20
2023-03-28T04:14:31.930Z,1.60
2023-03-28T04:16:59.617Z,2.08
2023-03-28T04:19:28.683Z,1.98
2023-03-28T04:21:57.438Z,1.98
2023-03-28T04:24:25.359Z,1.98
2023-03-28T04:26:55.858Z,1.67
2023-03-28T04:29:30.980Z,2.00
2023-03-28T04:31:58.912Z,2.10
2023-03-28T04:34:30.815Z,2.30
2023-03-28T04:37:01.690Z,1.60
2023-03-28T04:39:30.290Z,3.03
2023-03-28T04:42:01.883Z,2.42
2023-03-28T04:44:30.335Z,2.42
2023-03-28T04:46:58.353Z,2.08
2023-03-28T04:49:26.665Z,1.98
2023-03-28T04:51:55.838Z,2.10
2023-03-28T04:54:23.566Z,2.40
2023-03-28T04:56:51.668Z,2.33
2023-03-28T04:59:19.894Z,2.78
2023-03-28T05:01:50.092Z,2.55
2023-03-28T05:04:18.524Z,2.35
2023-03-28T05:06:46.557Z,2.60
2023-03-28T05:09:16.418Z,2.93
2023-03-28T05:11:46.390Z,3.05
2023-03-28T05:14:14.106Z,2.55
2023-03-28T05:16:42.073Z,3.03
2023-03-28T05:19:12.872Z,2.50
2023-03-28T05:21:41.101Z,2.72
2023-03-28T05:24:10.001Z,2.63
2023-03-28T05:26:39.096Z,2.70
2023-03-28T05:29:07.163Z,2.78
2023-03-28T05:31:34.919Z,2.92
2023-03-28T05:34:02.646Z,2.88
2023-03-28T05:36:30.819Z,2.78
2023-03-28T05:38:58.491Z,2.90
2023-03-28T05:41:26.542Z,3.15
2023-03-28T05:43:56.093Z,2.88
2023-03-28T05:46:23.949Z,3.15
2023-03-28T05:48:51.683Z,3.90
2023-03-28T05:51:19.392Z,3.50
2023-03-28T05:53:47.131Z,2.92
2023-03-28T05:56:15.021Z,2.70
2023-03-28T05:58:42.690Z,3.80
2023-03-28T06:01:12.814Z,3.30
2023-03-28T06:03:42.788Z,2.90
2023-03-28T06:06:10.719Z,2.75
2023-03-28T06:08:38.896Z,2.80
2023-03-28T06:11:12.604Z,3.00
2023-03-28T06:13:40.393Z,3.33
2023-03-28T06:16:08.414Z,3.42
2023-03-28T06:18:37.523Z,3.60
2023-03-28T06:21:05.939Z,3.70
2023-03-28T06:23:33.726Z,3.20
2023-03-28T06:26:01.546Z,3.15
2023-03-28T06:28:29.226Z,3.47
2023-03-28T06:30:56.928Z,3.20
2023-03-28T06:33:24.659Z,3.47
2023-03-28T06:35:53.772Z,3.57
2023-03-28T06:38:21.582Z,3.40
2023-03-28T06:40:49.467Z,3.60
2023-03-28T06:43:17.150Z,4.32
2023-03-28T06:45:44.883Z,4.00
2023-03-28T06:48:12.587Z,3.92
2023-03-28T06:50:40.280Z,4.20
2023-03-28T06:53:09.389Z,3.25
2023-03-28T06:55:37.077Z,3.90
2023-03-28T06:58:05.474Z,3.40
2023-03-28T07:00:33.159Z,3.53
2023-03-28T07:03:00.904Z,3.53
2023-03-28T07:05:29.763Z,3.63
2023-03-28T07:07:57.698Z,3.10
2023-03-28T07:10:26.870Z,3.15
2023-03-28T07:12:54.593Z,3.38
2023-03-28T07:15:22.353Z,2.60
2023-03-28T07:17:50.314Z,2.70
2023-03-28T07:20:18.232Z,3.35
2023-03-28T07:22:46.075Z,3.58
2023-03-28T07:25:22.285Z,3.47
2023-03-28T07:27:51.457Z,2.80
2023-03-28T07:30:19.113Z,3.35
2023-03-28T07:32:56.223Z,3.28
2023-03-28T07:35:31.654Z,2.95
2023-03-28T07:38:00.295Z,3.88
2023-03-28T07:40:28.219Z,3.27
2023-03-28T07:42:57.479Z,3.00
2023-03-28T07:45:25.233Z,3.25
2023-03-28T07:47:52.923Z,2.92
2023-03-28T07:50:22.940Z,2.67
2023-03-28T07:52:57.608Z,3.00
2023-03-28T07:55:26.481Z,3.22
2023-03-28T07:57:54.460Z,2.75
2023-03-28T08:00:24.886Z,2.75
2023-03-28T08:02:53.217Z,2.97
2023-03-28T08:05:21.739Z,2.70
2023-03-28T08:07:53.880Z,3.20
2023-03-28T08:10:21.704Z,3.63
2023-03-28T08:12:49.486Z,3.60
2023-03-28T08:15:17.530Z,2.53
2023-03-28T08:17:46.721Z,3.83
2023-03-28T08:20:14.604Z,3.45
2023-03-28T08:22:42.453Z,3.97
2023-03-28T08:25:10.579Z,3.33
2023-03-28T08:27:38.280Z,3.50
2023-03-28T08:30:07.764Z,3.55
2023-03-28T08:32:35.855Z,3.37
2023-03-28T08:35:06.191Z,3.73
2023-03-28T08:40:27.167Z,3.00
2023-03-28T08:43:04.118Z,3.10
2023-03-28T08:45:42.380Z,2.45
2023-03-28T08:48:17.250Z,2.20
2023-03-28T08:50:48.000Z,2.90
2023-03-28T08:53:20.855Z,2.17
2023-03-28T08:55:50.583Z,2.38
2023-03-28T08:58:21.583Z,1.03
2023-03-28T09:00:50.464Z,1.27
2023-03-28T09:03:20.480Z,1.10
2023-03-28T09:06:16.728Z,0.82
2023-03-28T09:08:54.423Z,1.73
2023-03-28T09:11:30.889Z,0.90
2023-03-28T09:14:09.932Z,2.08
2023-03-28T09:16:48.903Z,1.30
2023-03-28T09:19:36.899Z,4.00
2023-03-28T09:22:19.758Z,1.40
2023-03-28T09:24:58.033Z,1.10
2023-03-28T09:27:29.788Z,0.90
2023-03-28T09:30:00.986Z,0.88
2023-03-28T09:32:31.904Z,1.27
2023-03-28T09:34:59.940Z,2.22
2023-03-28T09:37:32.704Z,1.17
2023-03-28T09:40:08.772Z,2.10
2023-03-28T09:42:43.208Z,1.27
2023-03-28T09:45:26.257Z,1.20
2023-03-28T09:47:54.032Z,1.50
2023-03-28T09:50:21.999Z,1.02
2023-03-28T09:52:52.074Z,1.40
2023-03-28T09:55:22.117Z,1.37
2023-03-28T09:58:02.051Z,1.13
2023-03-28T10:00:29.819Z,1.05
2023-03-28T10:02:57.676Z,1.38
2023-03-28T10:05:32.852Z,1.52
2023-03-28T10:08:04.373Z,1.63
2023-03-28T10:10:32.490Z,1.13
2023-03-28T10:13:04.179Z,1.30
2023-03-28T10:15:35.063Z,1.05
2023-03-28T10:18:24.009Z,1.08
2023-03-28T10:20:52.171Z,0.82
2023-03-28T10:23:22.645Z,1.17
2023-03-28T10:25:53.133Z,1.40
2023-03-28T10:28:28.517Z,1.10
2023-03-28T10:30:58.100Z,1.45
2023-03-28T10:33:27.926Z,1.53
2023-03-28T10:35:58.904Z,1.05
2023-03-28T10:41:03.261Z,1.30
2023-03-28T10:43:36.869Z,1.05
2023-03-28T10:46:08.991Z,0.73
2023-03-28T10:48:37.703Z,1.30
2023-03-28T10:51:09.080Z,1.20
2023-03-28T10:53:58.512Z,1.15
2023-03-28T10:56:31.051Z,0.82
2023-03-28T10:59:11.482Z,1.52
2023-03-28T11:01:49.864Z,1.10
2023-03-28T11:04:27.611Z,1.35
2023-03-28T11:07:01.746Z,1.00
2023-03-28T11:09:35.424Z,0.80
2023-03-28T11:12:14.932Z,1.30
2023-03-28T11:14:58.367Z,1.10
2023-03-28T11:17:31.320Z,1.40
2023-03-28T11:20:18.428Z,1.20
2023-03-28T11:23:05.087Z,0.97
2023-03-28T11:25:59.715Z,1.30
2023-03-28T11:28:35.358Z,1.63
2023-03-28T11:31:03.375Z,2.13
2023-03-28T11:33:35.854Z,1.27
2023-03-28T11:36:07.569Z,1.40
2023-03-28T11:38:39.227Z,1.90
2023-03-28T11:41:12.514Z,1.48
2023-03-28T11:43:45.965Z,2.00
2023-03-28T11:46:17.031Z,1.45
2023-03-28T11:48:47.979Z,1.60
2023-03-28T11:51:18.258Z,1.93
2023-03-28T11:53:51.469Z,2.03
2023-03-28T11:56:28.567Z,4.30
2023-03-28T11:59:23.613Z,3.25
2023-03-28T12:01:56.484Z,3.10
2023-03-28T12:04:28.670Z,3.10
2023-03-28T12:07:07.457Z,3.25
2023-03-28T12:09:37.764Z,2.35
2023-03-28T12:12:10.113Z,2.67
2023-03-28T12:14:46.193Z,2.85
2023-03-28T12:17:18.388Z,1.80
2023-03-28T12:19:48.502Z,2.80
2023-03-28T12:22:21.461Z,2.58
2023-03-28T12:24:57.541Z,2.95
2023-03-28T12:27:35.554Z,3.17
2023-03-28T12:30:10.073Z,2.80
2023-03-28T12:32:43.496Z,2.08
2023-03-28T12:35:15.717Z,1.40
2023-03-28T12:37:54.560Z,2.00
2023-03-28T12:40:27.363Z,2.05
2023-03-28T12:42:57.667Z,1.98
2023-03-28T12:45:31.112Z,1.80
2023-03-28T12:48:03.450Z,1.70
2023-03-28T12:50:33.780Z,1.30
2023-03-28T12:53:01.536Z,1.50
2023-03-28T12:55:47.022Z,1.77
2023-03-28T12:58:22.681Z,1.93
2023-03-28T13:01:00.393Z,2.08
2023-03-28T13:03:36.371Z,1.50
2023-03-28T13:06:12.088Z,1.90
2023-03-28T13:08:51.709Z,1.50
2023-03-28T13:11:26.655Z,1.13
2023-03-28T13:16:47.342Z,1.70
2023-03-28T13:19:18.634Z,1.30
2023-03-28T13:21:49.738Z,1.75
2023-03-28T13:24:31.922Z,1.42
2023-03-28T13:27:01.376Z,1.48
2023-03-28T13:29:45.713Z,2.90
2023-03-28T13:32:16.512Z,1.23
2023-03-28T13:34:51.386Z,1.88
2023-03-28T13:37:23.253Z,1.23
2023-03-28T13:39:52.672Z,1.90
2023-03-28T13:42:29.064Z,1.80
2023-03-28T13:44:59.570Z,1.30
2023-03-28T13:47:33.873Z,2.10
2023-03-28T13:50:05.019Z,1.42
2023-03-28T13:52:33.470Z,2.00
2023-03-28T13:55:02.505Z,1.50
2023-03-28T13:57:31.615Z,1.70
2023-03-28T14:00:01.422Z,2.40
2023-03-28T14:02:38.093Z,1.70
2023-03-28T14:05:14.930Z,1.38
2023-03-28T14:07:42.905Z,1.27
2023-03-28T14:10:29.771Z,1.70
2023-03-28T14:12:59.944Z,1.40
2023-03-28T14:15:30.481Z,1.83
2023-03-28T14:18:00.461Z,1.45
2023-03-28T14:20:29.436Z,1.70
2023-03-28T14:23:01.013Z,1.42
2023-03-28T14:25:30.735Z,1.63
2023-03-28T14:27:59.052Z,1.60
2023-03-28T14:30:28.949Z,1.90
2023-03-28T14:33:00.123Z,1.63
2023-03-28T14:35:30.095Z,1.85
2023-03-28T14:37:59.141Z,1.97
2023-03-28T14:40:32.930Z,1.70
2023-03-28T14:43:04.436Z,1.85
2023-03-28T14:45:36.258Z,1.70
2023-03-28T14:48:07.241Z,1.60
2023-03-28T14:50:37.458Z,1.52
2023-03-28T14:53:07.898Z,1.60
2023-03-28T14:55:36.847Z,3.13
2023-03-28T14:58:06.136Z,3.03
2023-03-28T15:01:04.793Z,1.33
2023-03-28T15:03:35.460Z,1.70
2023-03-28T15:06:03.840Z,1.42
2023-03-28T15:08:34.497Z,2.20
2023-03-28T15:11:15.527Z,1.57
2023-03-28T15:13:44.795Z,1.58
2023-03-28T15:16:18.410Z,1.75
2023-03-28T15:18:54.908Z,1.77
2023-03-28T15:21:23.801Z,1.70
2023-03-28T15:23:55.890Z,2.05
2023-03-28T15:26:27.853Z,1.90
2023-03-28T15:29:16.514Z,1.98
2023-03-28T15:31:45.156Z,1.13
2023-03-28T15:34:20.531Z,2.20
2023-03-28T15:36:54.241Z,1.33
2023-03-28T15:39:25.507Z,1.50
2023-03-28T15:41:55.379Z,1.67
2023-03-28T15:44:27.778Z,1.45
2023-03-28T15:46:57.778Z,1.58
2023-03-28T15:49:27.117Z,1.60
2023-03-28T15:51:57.508Z,1.30
2023-03-28T15:54:31.483Z,1.48
2023-03-28T15:57:02.331Z,1.50
2023-03-28T15:59:33.974Z,1.73
2023-03-28T16:02:22.112Z,1.23
2023-03-28T16:05:02.235Z,1.30
2023-03-28T16:07:35.818Z,1.40
2023-03-28T16:10:04.090Z,1.63
2023-03-28T16:12:31.828Z,1.20
2023-03-28T16:14:59.474Z,1.88
2023-03-28T16:17:31.064Z,1.47
2023-03-28T16:19:59.449Z,1.40
2023-03-28T16:22:28.559Z,1.63
2023-03-28T16:24:56.407Z,2.00
2023-03-28T16:27:24.142Z,1.20
2023-03-28T16:29:51.916Z,1.27
2023-03-28T16:32:23.787Z,1.47
2023-03-28T16:34:52.411Z,1.55
2023-03-28T16:37:20.623Z,1.47
2023-03-28T16:39:50.088Z,1.20
2023-03-28T16:42:20.869Z,1.33
2023-03-28T16:44:48.687Z,1.98
2023-03-28T16:47:16.754Z,1.90
2023-03-28T16:49:44.921Z,1.45
2023-03-28T16:52:12.548Z,1.48
2023-03-28T16:54:40.662Z,1.40
2023-03-28T16:57:09.852Z,1.25
2023-03-28T16:59:37.583Z,1.17
2023-03-28T17:02:05.266Z,1.10
2023-03-28T17:04:33.321Z,1.10
2023-03-28T17:07:01.172Z,1.10
2023-03-28T17:09:29.003Z,1.00
2023-03-28T17:11:56.923Z,1.23
2023-03-28T17:14:26.396Z,1.17
2023-03-28T17:16:54.046Z,1.10
2023-03-28T17:19:24.118Z,1.10
2023-03-28T17:21:51.835Z,1.00
2023-03-28T17:24:21.419Z,1.48
2023-03-28T17:26:49.232Z,1.03
2023-03-28T17:29:17.151Z,1.20
2023-03-28T17:31:46.634Z,1.35
2023-03-28T17:34:14.402Z,1.20
2023-03-28T17:36:42.414Z,1.15
2023-03-28T17:39:11.610Z,1.45
2023-03-28T17:41:39.255Z,1.10
2023-03-28T17:44:08.883Z,1.50
2023-03-28T17:46:37.546Z,1.40
2023-03-28T17:49:08.140Z,1.30
2023-03-28T17:51:35.886Z,1.42
2023-03-28T17:54:06.494Z,1.38
2023-03-28T17:56:34.135Z,1.40
2023-03-28T17:59:02.262Z,1.70
2023-03-28T18:01:30.153Z,1.42
2023-03-28T18:03:58.063Z,1.70
2023-03-28T18:06:27.378Z,1.63
2023-03-28T18:08:55.256Z,1.13
2023-03-28T18:11:23.035Z,1.45
2023-03-28T18:13:52.584Z,1.70
2023-03-28T18:16:20.316Z,1.63
2023-03-28T18:18:48.102Z,1.70
2023-03-28T18:21:16.538Z,1.95
2023-03-28T18:23:45.965Z,1.52
2023-03-28T18:26:13.631Z,2.20
2023-03-28T18:28:42.133Z,1.60
2023-03-28T18:31:12.094Z,1.90
2023-03-28T18:33:42.912Z,2.13
2023-03-28T18:36:12.662Z,1.90
2023-03-28T18:38:42.071Z,1.60
2023-03-28T18:41:12.589Z,2.05
2023-03-28T18:43:42.323Z,2.00
2023-03-28T18:46:15.393Z,1.70
2023-03-28T18:48:44.629Z,1.83
2023-03-28T18:51:13.697Z,1.70
2023-03-28T18:53:41.627Z,1.60
2023-03-28T18:56:13.528Z,1.50
2023-03-28T18:58:41.375Z,1.70
2023-03-28T19:01:10.293Z,1.60
2023-03-28T19:03:40.496Z,1.90
2023-03-28T19:06:09.330Z,2.20
2023-03-28T19:08:37.065Z,2.25
2023-03-28T19:11:08.477Z,2.10
2023-03-28T19:13:37.516Z,1.93
2023-03-28T19:16:06.975Z,1.88
2023-03-28T19:18:37.378Z,1.60
2023-03-28T19:21:05.464Z,1.67
2023-03-28T19:23:33.124Z,1.65
2023-03-28T19:26:01.371Z,1.90
2023-03-28T19:28:29.152Z,1.60
2023-03-28T19:30:59.998Z,1.60
2023-03-28T19:33:28.532Z,1.70
2023-03-28T19:35:56.557Z,1.45
2023-03-28T19:38:25.788Z,1.80
2023-03-28T19:40:58.585Z,1.38
2023-03-28T19:43:26.486Z,1.60
2023-03-28T19:45:54.553Z,1.48
2023-03-28T19:48:24.256Z,1.55
2023-03-28T19:50:51.909Z,1.52
2023-03-28T19:53:21.335Z,1.80
2023-03-28T19:55:52.306Z,1.73
2023-03-28T19:58:19.946Z,1.70
2023-03-28T20:00:48.729Z,1.80
2023-03-28T20:03:16.701Z,2.10
2023-03-28T20:05:47.036Z,1.90
2023-03-28T20:08:16.029Z,2.22
2023-03-28T20:10:45.230Z,1.38
2023-03-28T20:13:13.168Z,1.73
2023-03-28T20:15:42.006Z,2.00
2023-03-28T20:18:10.469Z,1.90
2023-03-28T20:20:39.122Z,1.65
2023-03-28T20:23:08.563Z,1.58
2023-03-28T20:25:37.068Z,1.50
2023-03-28T20:28:05.365Z,1.85
2023-03-28T20:30:33.642Z,1.70
2023-03-28T20:33:01.650Z,1.92
2023-03-28T20:35:29.465Z,1.50
2023-03-28T20:37:57.183Z,1.90
2023-03-28T20:40:26.980Z,1.77
2023-03-28T20:42:54.829Z,1.63
2023-03-28T20:45:25.318Z,1.88
2023-03-28T20:47:58.617Z,2.10
2023-03-28T20:50:34.202Z,2.03
2023-03-28T20:53:02.186Z,2.03
2023-03-28T20:55:31.542Z,2.05
2023-03-28T20:57:59.442Z,1.90
2023-03-28T21:00:32.301Z,2.42
2023-03-28T21:03:00.491Z,1.83
2023-03-28T21:05:28.817Z,2.30
2023-03-28T21:07:56.665Z,2.60
2023-03-28T21:10:24.575Z,2.50
2023-03-28T21:12:53.684Z,2.28
2023-03-28T21:15:21.576Z,2.60
2023-03-28T21:17:53.588Z,2.40
2023-03-28T21:20:21.938Z,2.67
2023-03-28T21:22:49.636Z,2.28
2023-03-28T21:25:17.724Z,2.67
2023-03-28T21:27:45.812Z,2.40
2023-03-28T21:33:03.992Z,2.13
2023-03-28T21:35:31.773Z,2.30
2023-03-28T21:37:59.538Z,2.53
2023-03-28T21:40:27.224Z,2.00
2023-03-28T21:43:51.785Z,2.10
2023-03-28T21:46:20.713Z,2.30
2023-03-28T21:48:50.057Z,2.10
2023-03-28T21:51:18.559Z,2.22
2023-03-28T21:53:47.048Z,2.65
2023-03-28T21:56:16.694Z,2.50
2023-03-28T21:58:44.549Z,2.10
2023-03-28T22:01:13.735Z,2.40
2023-03-28T22:03:41.727Z,2.15
2023-03-28T22:06:11.482Z,2.70
2023-03-28T22:08:39.177Z,2.45
2023-03-28T22:11:13.488Z,2.33
2023-03-28T22:13:41.959Z,2.80
2023-03-28T22:16:12.783Z,2.67
2023-03-28T22:18:41.530Z,2.47
2023-03-28T22:21:17.471Z,3.00
2023-03-28T22:23:47.570Z,2.67
2023-03-28T22:26:16.004Z,2.75
2023-03-28T22:28:43.734Z,2.30
2023-03-28T22:31:11.648Z,2.95
2023-03-28T22:33:39.430Z,2.80
2023-03-28T22:36:07.930Z,2.78
2023-03-28T22:38:37.485Z,3.25
2023-03-28T22:41:06.185Z,2.97
2023-03-28T22:43:34.002Z,3.35
2023-03-28T22:46:01.747Z,3.30
2023-03-28T22:48:31.546Z,3.47
2023-03-28T22:51:01.671Z,3.53
2023-03-28T22:53:29.685Z,3.42
2023-03-28T22:55:59.123Z,4.33
2023-03-28T22:58:27.289Z,4.20
2023-03-28T23:00:55.143Z,4.05
2023-03-28T23:03:23.126Z,5.47
2023-03-28T23:05:51.609Z,5.00
2023-03-28T23:08:19.377Z,4.87
2023-03-28T23:10:47.649Z,4.75
2023-03-28T23:13:17.085Z,5.15
2023-03-28T23:15:44.808Z,5.45
2023-03-28T23:18:12.477Z,5.18
2023-03-28T23:20:40.126Z,5.25
2023-03-28T23:23:08.870Z,5.10
2023-03-28T23:25:37.098Z,5.20
2023-03-28T23:28:05.365Z,5.70
2023-03-28T23:30:34.464Z,5.80
2023-03-28T23:33:02.800Z,4.40
2023-03-28T23:35:30.585Z,4.82
2023-03-28T23:37:58.255Z,4.72
2023-03-28T23:40:25.934Z,4.80
2023-03-28T23:42:53.595Z,5.00
2023-03-28T23:45:21.207Z,4.72
2023-03-28T23:47:50.741Z,5.13
2023-03-28T23:50:18.658Z,5.03
2023-03-28T23:52:46.480Z,4.72
2023-03-28T23:55:14.466Z,5.15
2023-03-28T23:57:42.172Z,4.68
